Portland, OR

1:08 AM PDT on August 03, 2015 (GMT -0700)
Westerly, NW Portland | | Change Station
CLOSE
Current Station
Personal Weather Station
Location: Portland, OR
Elevation: 223 ft
Nearby Weather Stations

Elev 223 ft 45.52 °N, 122.70 °W | Updated 2 minutes ago

Overcast
Overcast
69.9 °F
Feels Like 69.9 °F
N
0.0
Wind Variable Wind from NNE

Today
High -- | Low -- °F
--% Chance of Precip.
Yesterday
High -- | Low -- °F
Precip. -- in
5:56 AM 8:36 PM
Waning Gibbous, 88% visible
Pressure 29.89 in
Visibility 10.0 miles
Clouds Overcast 20000 ft
Dew Point 61 °F
Humidity 74%
Rainfall 0.00 in
Snow Depth Not available.
UV 0 out of 12
Pollen 5.00 out of 12
Air Quality Not available.
Flu Activity Not available.
METAR KPDX 030753Z 00000KT 10SM OVC200 23/16 A2989 RMK AO2 SLP120 T02280156 402670194

More Conditions Fewer Conditions

Pressure 29.89 in
Visibility 10.0 miles
Clouds Overcast 20000 ft
Dew Point 61 °F
Humidity 74%
Rainfall 0.00 in
Snow Depth Not available.
UV 0 out of 12
Pollen 5.00 out of 12
Air Quality Not available.
Flu Activity Not available.
METAR KPDX 030753Z 00000KT 10SM OVC200 23/16 A2989 RMK AO2 SLP120 T02280156 402670194

More Conditions Fewer Conditions

10-Day Weather Forecast

×

Almanac

Astronomy

Aug. 03, 2015 Rise Set
Actual Time
Civil Twilight
Nautical Twilight
Astronomical Twilight
Moon
Length of Visible Light
Length of Day
Tomorrow will be .
, % of the Moon is Illuminated

Today's Extremes

State Highs State Lows

Community

WunderPhotos

Upload Photos

1,843,594 photos uploaded!

WunderBlogs® & News

Nearby

Air Quality

  Air Quality AQ Index Pollutant
Not available.

Snow Depth

Station Depth Elevation

Earthquake Activity

City Distance Mag. Time & Date
Minimum magnitude displayed is 2.5.

Coastal Water Temperatures

Place Temperature

Stations

Nearby Weather Stations

Station Location Temp. Windchill Dew Point Humidity Wind Precip. Elev Updated Type